createdAt,value
2018-09-15T00:00:44.149Z,15.88
2018-09-15T00:01:43.747Z,15.90
2018-09-15T00:02:43.655Z,15.86
2018-09-15T00:03:43.551Z,15.80
2018-09-15T00:04:43.460Z,15.79
2018-09-15T00:05:43.357Z,15.73
2018-09-15T00:06:43.254Z,15.65
2018-09-15T00:07:43.161Z,15.67
2018-09-15T00:08:43.058Z,15.70
2018-09-15T00:09:42.963Z,15.61
2018-09-15T00:10:42.868Z,15.57
2018-09-15T00:11:42.764Z,15.55
2018-09-15T00:12:42.675Z,15.47
2018-09-15T00:13:42.570Z,15.47
2018-09-15T00:14:42.467Z,15.47
2018-09-15T00:15:42.376Z,15.29
2018-09-15T00:16:42.273Z,15.37
2018-09-15T00:17:42.170Z,15.36
2018-09-15T00:18:42.079Z,15.27
2018-09-15T00:19:41.975Z,15.31
2018-09-15T00:20:42.124Z,15.24
2018-09-15T00:21:41.782Z,15.11
2018-09-15T00:22:41.678Z,15.11
2018-09-15T00:23:41.576Z,15.17
2018-09-15T00:24:41.484Z,15.15
2018-09-15T00:25:41.381Z,15.11
2018-09-15T00:26:41.279Z,15.09
2018-09-15T00:27:41.187Z,15.04
2018-09-15T00:28:41.084Z,14.91
2018-09-15T00:29:40.980Z,14.92
2018-09-15T00:30:40.889Z,14.92
2018-09-15T00:31:40.781Z,14.91
2018-09-15T00:32:40.682Z,14.89
2018-09-15T00:33:40.592Z,14.89
2018-09-15T00:34:40.488Z,14.85
2018-09-15T00:35:40.385Z,14.82
2018-09-15T00:36:40.301Z,14.77
2018-09-15T00:37:40.203Z,14.78
2018-09-15T00:38:40.088Z,14.78
2018-09-15T00:39:39.997Z,14.77
2018-09-15T00:40:40.147Z,14.69
2018-09-15T00:41:39.808Z,14.68
2018-09-15T00:42:39.697Z,14.55
2018-09-15T00:43:39.594Z,14.59
2018-09-15T00:44:39.490Z,14.60
2018-09-15T00:45:39.387Z,14.53
2018-09-15T00:46:39.298Z,14.59
2018-09-15T00:47:39.193Z,14.59
2018-09-15T00:48:39.091Z,14.54
2018-09-15T00:49:38.998Z,14.45
2018-09-15T00:50:38.897Z,14.51
2018-09-15T00:51:38.792Z,14.37
2018-09-15T00:52:38.693Z,14.33
2018-09-15T00:53:38.598Z,14.37
2018-09-15T00:54:38.494Z,14.33
2018-09-15T00:55:38.392Z,14.32
2018-09-15T00:56:38.300Z,14.26
2018-09-15T00:57:38.197Z,14.32
2018-09-15T00:58:38.094Z,14.22
2018-09-15T00:59:37.991Z,14.28
2018-09-15T01:00:38.153Z,14.22
2018-09-15T01:01:37.797Z,14.25
2018-09-15T01:02:37.693Z,14.22
2018-09-15T01:03:37.602Z,14.23
2018-09-15T01:04:37.498Z,14.23
2018-09-15T01:05:37.395Z,14.25
2018-09-15T01:06:37.294Z,14.22
2018-09-15T01:07:37.201Z,14.26
2018-09-15T01:08:37.099Z,14.25
2018-09-15T01:09:36.994Z,14.18
2018-09-15T01:10:36.908Z,14.15
2018-09-15T01:11:36.800Z,14.12
2018-09-15T01:12:36.696Z,14.12
2018-09-15T01:13:36.594Z,14.15
2018-09-15T01:14:36.504Z,14.15
2018-09-15T01:15:36.400Z,14.17
2018-09-15T01:16:36.297Z,14.18
2018-09-15T01:17:36.194Z,14.10
2018-09-15T01:18:36.101Z,14.10
2018-09-15T01:19:36.000Z,14.14
2018-09-15T01:20:36.195Z,14.11
2018-09-15T01:21:35.794Z,14.11
2018-09-15T01:22:35.702Z,14.07
2018-09-15T01:23:35.599Z,14.11
2018-09-15T01:24:35.501Z,14.11
2018-09-15T01:25:35.404Z,14.08
2018-09-15T01:26:35.301Z,13.99
2018-09-15T01:27:35.197Z,13.97
2018-09-15T01:28:35.094Z,13.93
2018-09-15T01:29:35.010Z,13.95
2018-09-15T01:30:34.901Z,13.81
2018-09-15T01:31:34.797Z,13.81
2018-09-15T01:32:34.709Z,13.79
2018-09-15T01:33:34.603Z,13.85
2018-09-15T01:34:34.501Z,13.86
2018-09-15T01:35:34.395Z,13.89
2018-09-15T01:36:34.310Z,13.90
2018-09-15T01:37:34.203Z,13.79
2018-09-15T01:38:34.100Z,13.71
2018-09-15T01:39:33.997Z,13.72
2018-09-15T01:40:33.918Z,13.63
2018-09-15T01:41:33.802Z,13.77
2018-09-15T01:42:33.703Z,13.70
2018-09-15T01:43:33.597Z,13.67
2018-09-15T01:44:33.506Z,13.59
2018-09-15T01:45:33.401Z,13.54
2018-09-15T01:46:33.298Z,13.56
2018-09-15T01:47:33.219Z,13.53
2018-09-15T01:48:33.103Z,13.49
2018-09-15T01:49:32.999Z,13.53
2018-09-15T01:50:32.897Z,13.52
2018-09-15T01:51:32.808Z,13.46
2018-09-15T01:52:32.706Z,13.46
2018-09-15T01:53:32.601Z,13.46
2018-09-15T01:54:32.559Z,13.41
2018-09-15T01:55:32.405Z,13.39
2018-09-15T01:56:32.315Z,13.39
2018-09-15T01:57:32.239Z,13.28
2018-09-15T01:58:32.109Z,13.31
2018-09-15T01:59:32.006Z,13.28
2018-09-15T02:00:31.905Z,13.23
2018-09-15T02:01:31.802Z,13.27
2018-09-15T02:02:31.707Z,13.20
2018-09-15T02:03:31.605Z,13.25
2018-09-15T02:04:31.500Z,13.23
2018-09-15T02:05:31.411Z,13.19
2018-09-15T02:06:31.306Z,13.20
2018-09-15T02:07:31.204Z,13.11
2018-09-15T02:08:31.101Z,13.12
2018-09-15T02:09:30.999Z,13.08
2018-09-15T02:10:31.205Z,13.08
2018-09-15T02:11:30.802Z,13.05
2018-09-15T02:12:30.699Z,13.08
2018-09-15T02:13:30.597Z,13.00
2018-09-15T02:14:30.506Z,13.04
2018-09-15T02:15:30.403Z,13.00
2018-09-15T02:16:30.300Z,13.00
2018-09-15T02:17:30.197Z,13.00
2018-09-15T02:18:30.104Z,13.05
2018-09-15T02:19:30.001Z,13.03
2018-09-15T02:20:30.198Z,13.01
2018-09-15T02:21:29.794Z,12.95
2018-09-15T02:22:29.739Z,12.94
2018-09-15T02:23:29.601Z,12.87
2018-09-15T02:24:29.498Z,12.91
2018-09-15T02:25:29.394Z,12.93
2018-09-15T02:26:29.303Z,12.87
2018-09-15T02:27:29.200Z,12.86
2018-09-15T02:28:29.096Z,12.91
2018-09-15T02:29:28.993Z,12.94
2018-09-15T02:30:28.891Z,12.90
2018-09-15T02:31:28.803Z,12.91
2018-09-15T02:32:28.697Z,12.85
2018-09-15T02:33:28.594Z,12.83
2018-09-15T02:34:28.491Z,12.86
2018-09-15T02:35:28.387Z,12.79
2018-09-15T02:36:28.297Z,12.79
2018-09-15T02:37:28.192Z,12.76
2018-09-15T02:38:28.088Z,12.75
2018-09-15T02:39:27.997Z,12.70
2018-09-15T02:40:28.183Z,12.75
2018-09-15T02:41:27.792Z,12.76
2018-09-15T02:42:27.683Z,12.70
2018-09-15T02:43:27.585Z,12.64
2018-09-15T02:44:27.482Z,12.65
2018-09-15T02:45:27.392Z,12.61
2018-09-15T02:46:27.288Z,12.62
2018-09-15T02:47:27.183Z,12.60
2018-09-15T02:48:27.080Z,12.61
2018-09-15T02:49:26.978Z,12.64
2018-09-15T02:50:26.876Z,12.47
2018-09-15T02:51:26.783Z,12.54
2018-09-15T02:52:26.681Z,12.54
2018-09-15T02:53:26.577Z,12.49
2018-09-15T02:54:26.479Z,12.53
2018-09-15T02:55:26.376Z,12.50
2018-09-15T02:56:26.279Z,12.47
2018-09-15T02:57:26.176Z,12.47
2018-09-15T02:58:26.072Z,12.49
2018-09-15T02:59:26.001Z,12.64
2018-09-15T03:00:25.867Z,12.47
2018-09-15T03:01:25.776Z,12.55
2018-09-15T03:02:25.672Z,12.47
2018-09-15T03:03:25.569Z,12.49
2018-09-15T03:04:25.465Z,12.54
2018-09-15T03:05:25.362Z,12.49
2018-09-15T03:06:25.271Z,12.46
2018-09-15T03:07:25.168Z,12.46
2018-09-15T03:08:25.064Z,12.54
2018-09-15T03:09:24.965Z,12.49
2018-09-15T03:10:24.875Z,12.47
2018-09-15T03:11:24.768Z,12.50
2018-09-15T03:12:24.668Z,12.46
2018-09-15T03:13:24.561Z,12.53
2018-09-15T03:14:24.457Z,12.53
2018-09-15T03:15:24.354Z,12.50
2018-09-15T03:16:24.251Z,12.50
2018-09-15T03:17:24.172Z,12.46
2018-09-15T03:18:24.056Z,12.50
2018-09-15T03:19:23.953Z,12.46
2018-09-15T03:20:23.852Z,12.39
2018-09-15T03:21:23.749Z,12.43
2018-09-15T03:22:23.656Z,12.37
2018-09-15T03:23:23.552Z,12.39
2018-09-15T03:24:23.450Z,12.39
2018-09-15T03:25:23.347Z,12.40
2018-09-15T03:26:23.243Z,12.32
2018-09-15T03:27:23.151Z,12.39
2018-09-15T03:28:23.048Z,12.39
2018-09-15T03:29:22.945Z,12.35
2018-09-15T03:30:22.842Z,12.39
2018-09-15T03:31:22.738Z,12.40
2018-09-15T03:32:22.648Z,12.31
2018-09-15T03:33:22.545Z,12.39
2018-09-15T03:34:22.441Z,12.40
2018-09-15T03:35:22.338Z,12.32
2018-09-15T03:36:22.238Z,12.39
2018-09-15T03:37:22.132Z,12.40
2018-09-15T03:38:22.041Z,12.37
2018-09-15T03:39:21.936Z,12.35
2018-09-15T03:40:22.084Z,12.25
2018-09-15T03:41:21.764Z,12.32
2018-09-15T03:42:21.627Z,12.36
2018-09-15T03:43:21.524Z,12.22
2018-09-15T03:44:21.436Z,12.29
2018-09-15T03:45:21.366Z,12.22
2018-09-15T03:46:21.228Z,12.25
2018-09-15T03:47:21.123Z,12.24
2018-09-15T03:48:21.021Z,12.29
2018-09-15T03:49:20.918Z,12.28
2018-09-15T03:50:20.841Z,12.24
2018-09-15T03:51:20.722Z,12.28
2018-09-15T03:52:20.614Z,12.29
2018-09-15T03:53:20.515Z,12.31
2018-09-15T03:54:20.412Z,12.29
2018-09-15T03:55:20.311Z,12.32
2018-09-15T03:56:20.218Z,12.32
2018-09-15T03:57:20.116Z,12.40
2018-09-15T03:58:20.012Z,12.43
2018-09-15T03:59:19.909Z,12.45
2018-09-15T04:00:20.106Z,12.45
2018-09-15T04:01:19.714Z,12.46
2018-09-15T04:02:19.611Z,12.50
2018-09-15T04:03:19.508Z,12.47
2018-09-15T04:04:19.404Z,12.47
2018-09-15T04:05:19.301Z,12.54
2018-09-15T04:06:19.199Z,12.54
2018-09-15T04:07:19.108Z,12.57
2018-09-15T04:08:19.004Z,12.57
2018-09-15T04:09:18.901Z,12.58
2018-09-15T04:10:18.798Z,12.54
2018-09-15T04:11:18.694Z,12.45
2018-09-15T04:12:18.602Z,12.58
2018-09-15T04:13:18.500Z,12.62
2018-09-15T04:14:18.395Z,12.60
2018-09-15T04:15:18.296Z,12.62
2018-09-15T04:16:18.189Z,12.70
2018-09-15T04:17:18.088Z,12.75
2018-09-15T04:18:17.995Z,12.75
2018-09-15T04:19:17.892Z,12.72
2018-09-15T04:20:17.790Z,12.72
2018-09-15T04:21:17.686Z,12.72
2018-09-15T04:22:17.595Z,12.82
2018-09-15T04:23:17.493Z,12.91
2018-09-15T04:24:17.388Z,12.98
2018-09-15T04:25:17.284Z,13.05
2018-09-15T04:26:17.182Z,13.19
2018-09-15T04:27:17.080Z,13.25
2018-09-15T04:28:16.994Z,13.39
2018-09-15T04:29:16.885Z,13.41
2018-09-15T04:30:16.781Z,13.39
2018-09-15T04:31:16.678Z,13.56
2018-09-15T04:32:16.588Z,13.53
2018-09-15T04:33:16.483Z,13.56
2018-09-15T04:34:16.379Z,13.59
2018-09-15T04:35:16.276Z,13.74
2018-09-15T04:36:16.187Z,13.74
2018-09-15T04:37:16.086Z,13.68
2018-09-15T04:38:15.980Z,13.81
2018-09-15T04:39:15.876Z,13.74
2018-09-15T04:40:15.785Z,13.87
2018-09-15T04:41:15.685Z,13.87
2018-09-15T04:42:15.578Z,13.89
2018-09-15T04:43:15.481Z,13.96
2018-09-15T04:44:15.373Z,13.96
2018-09-15T04:45:15.283Z,13.86
2018-09-15T04:46:15.178Z,13.90
2018-09-15T04:47:15.074Z,13.92
2018-09-15T04:48:14.973Z,13.93
2018-09-15T04:49:14.880Z,13.89
2018-09-15T04:50:14.779Z,13.93
2018-09-15T04:51:14.673Z,13.95
2018-09-15T04:52:14.571Z,14.03
2018-09-15T04:53:14.481Z,13.93
2018-09-15T04:54:14.377Z,13.92
2018-09-15T04:55:14.284Z,13.95
2018-09-15T04:56:14.181Z,14.04
2018-09-15T04:57:14.078Z,14.00
2018-09-15T04:58:13.975Z,14.03
2018-09-15T04:59:13.872Z,14.04
2018-09-15T05:00:14.032Z,14.00
2018-09-15T05:01:13.679Z,14.05
2018-09-15T05:02:13.575Z,14.10
2018-09-15T05:03:13.476Z,13.95
2018-09-15T05:04:13.379Z,14.08
2018-09-15T05:05:13.276Z,13.99
2018-09-15T05:06:13.173Z,14.03
2018-09-15T05:07:13.072Z,13.90
2018-09-15T05:08:12.983Z,14.00
2018-09-15T05:09:12.878Z,13.93
2018-09-15T05:10:12.773Z,13.97
2018-09-15T05:11:12.683Z,13.96
2018-09-15T05:12:12.578Z,13.95
2018-09-15T05:13:12.475Z,13.97
2018-09-15T05:14:12.373Z,13.95
2018-09-15T05:15:12.282Z,13.93
2018-09-15T05:16:12.179Z,13.83
2018-09-15T05:17:12.075Z,13.89
2018-09-15T05:18:11.984Z,13.85
2018-09-15T05:19:11.872Z,13.90
2018-09-15T05:20:12.028Z,13.89
2018-09-15T05:21:11.674Z,13.96
2018-09-15T05:22:11.584Z,13.97
2018-09-15T05:23:11.481Z,13.97
2018-09-15T05:24:11.379Z,14.03
2018-09-15T05:25:11.275Z,14.11
2018-09-15T05:26:11.182Z,14.18
2018-09-15T05:27:11.082Z,14.11
2018-09-15T05:28:10.977Z,14.22
2018-09-15T05:29:10.885Z,14.29
2018-09-15T05:30:10.785Z,14.32
2018-09-15T05:31:10.680Z,14.40
2018-09-15T05:32:10.576Z,14.43
2018-09-15T05:33:10.484Z,14.36
2018-09-15T05:34:10.381Z,14.43
2018-09-15T05:35:10.278Z,14.45
2018-09-15T05:36:10.176Z,14.60
2018-09-15T05:37:10.085Z,14.86
2018-09-15T05:38:09.982Z,15.14
2018-09-15T05:39:09.878Z,15.27
2018-09-15T05:40:10.037Z,15.44
2018-09-15T05:41:09.683Z,15.42
2018-09-15T05:42:09.580Z,15.37
2018-09-15T05:43:09.490Z,15.35
2018-09-15T05:44:09.386Z,15.19
2018-09-15T05:45:09.283Z,15.14
2018-09-15T05:46:09.193Z,15.10
2018-09-15T05:47:09.089Z,15.02
2018-09-15T05:48:08.998Z,15.09
2018-09-15T05:49:08.895Z,15.04
2018-09-15T05:50:08.792Z,14.99
2018-09-15T05:51:08.688Z,14.97
2018-09-15T05:52:08.596Z,14.94
2018-09-15T05:53:08.494Z,15.02
2018-09-15T05:54:08.394Z,15.02
2018-09-15T05:55:08.300Z,15.00
2018-09-15T05:56:08.219Z,15.10
2018-09-15T05:57:08.105Z,15.18
2018-09-15T05:58:08.002Z,15.29
2018-09-15T05:59:07.900Z,15.76
2018-09-15T06:00:07.808Z,15.97
2018-09-15T06:01:07.706Z,16.29
2018-09-15T06:02:07.602Z,16.47
2018-09-15T06:03:07.511Z,16.65
2018-09-15T06:04:07.407Z,16.79
2018-09-15T06:05:07.305Z,16.93
2018-09-15T06:06:07.217Z,17.01
2018-09-15T06:07:07.111Z,17.14
2018-09-15T06:08:07.019Z,17.41
2018-09-15T06:09:06.919Z,17.48
2018-09-15T06:10:06.834Z,17.68
2018-09-15T06:11:06.722Z,17.60
2018-09-15T06:12:06.620Z,17.74
2018-09-15T06:13:06.527Z,17.82
2018-09-15T06:14:06.425Z,17.82
2018-09-15T06:15:06.334Z,17.70
2018-09-15T06:16:06.231Z,17.70
2018-09-15T06:17:06.139Z,17.42
2018-09-15T06:18:06.036Z,17.48
2018-09-15T06:19:05.933Z,17.60
2018-09-15T06:20:06.092Z,17.42
2018-09-15T06:21:05.740Z,17.42
2018-09-15T06:22:05.648Z,17.51
2018-09-15T06:23:05.544Z,17.51
2018-09-15T06:24:05.454Z,17.60
2018-09-15T06:25:05.351Z,17.85
2018-09-15T06:26:05.259Z,17.65
2018-09-15T06:27:05.156Z,17.64
2018-09-15T06:28:05.066Z,17.76
2018-09-15T06:29:04.989Z,18.01
2018-09-15T06:30:04.872Z,18.13
2018-09-15T06:31:04.782Z,18.13
2018-09-15T06:32:04.678Z,18.35
2018-09-15T06:33:04.574Z,18.55
2018-09-15T06:34:04.483Z,18.73
2018-09-15T06:35:04.382Z,18.35
2018-09-15T06:36:04.290Z,18.63
2018-09-15T06:37:04.198Z,18.78
2018-09-15T06:38:04.095Z,18.73
2018-09-15T06:39:04.006Z,18.98
2018-09-15T06:40:03.903Z,19.04
2018-09-15T06:41:03.810Z,18.75
2018-09-15T06:42:03.729Z,18.68
2018-09-15T06:43:03.620Z,18.68
2018-09-15T06:44:03.514Z,19.00
2018-09-15T06:45:03.422Z,19.21
2018-09-15T06:46:03.332Z,18.92
2018-09-15T06:47:03.229Z,18.96
2018-09-15T06:48:03.140Z,19.21
2018-09-15T06:49:03.033Z,19.16
2018-09-15T06:50:02.944Z,19.37
2018-09-15T06:51:02.853Z,19.12
2018-09-15T06:52:02.749Z,18.96
2018-09-15T06:53:02.658Z,19.27
2018-09-15T06:54:02.567Z,19.16
2018-09-15T06:55:02.464Z,19.02
2018-09-15T06:56:02.373Z,19.36
2018-09-15T06:57:02.269Z,19.15
2018-09-15T06:58:02.173Z,19.52
2018-09-15T06:59:02.089Z,19.64
2018-09-15T07:00:01.985Z,19.58
2018-09-15T07:01:01.895Z,19.31
2018-09-15T07:02:01.803Z,19.19
2018-09-15T07:03:01.704Z,19.04
2018-09-15T07:04:01.608Z,18.59
2018-09-15T07:05:01.814Z,18.31
2018-09-15T07:06:01.415Z,18.10
2018-09-15T07:07:01.353Z,17.64
2018-09-15T07:08:01.220Z,17.41
2018-09-15T07:09:01.131Z,17.15
2018-09-15T07:10:01.027Z,16.93
2018-09-15T07:11:00.936Z,16.83
2018-09-15T07:12:00.845Z,16.81
2018-09-15T07:13:00.775Z,16.79
2018-09-15T07:14:00.663Z,16.65
2018-09-15T07:15:00.547Z,16.76
2018-09-15T07:16:00.457Z,16.68
2018-09-15T07:17:00.365Z,16.71
2018-09-15T07:18:00.266Z,16.78
2018-09-15T07:19:00.159Z,16.78
2018-09-15T07:20:00.099Z,16.84
2018-09-15T07:20:59.965Z,17.04
2018-09-15T07:21:59.874Z,17.02
2018-09-15T07:22:59.770Z,17.08
2018-09-15T07:23:59.681Z,17.01
2018-09-15T07:24:59.578Z,17.09
2018-09-15T07:25:59.499Z,17.20
2018-09-15T07:26:59.382Z,17.09
2018-09-15T07:27:59.292Z,17.05
2018-09-15T07:28:59.189Z,17.14
2018-09-15T07:29:59.097Z,17.19
2018-09-15T07:30:58.999Z,17.09
2018-09-15T07:31:58.924Z,17.02
2018-09-15T07:32:58.800Z,16.96
2018-09-15T07:33:58.712Z,17.05
2018-09-15T07:34:58.606Z,16.96
2018-09-15T07:35:58.520Z,16.97
2018-09-15T07:36:58.413Z,17.06
2018-09-15T07:37:58.323Z,17.19
2018-09-15T07:38:58.218Z,17.14
2018-09-15T07:39:58.116Z,17.20
2018-09-15T07:40:58.025Z,17.22
2018-09-15T07:41:57.922Z,17.22
2018-09-15T07:42:57.831Z,17.22
2018-09-15T07:43:57.726Z,17.30
2018-09-15T07:44:57.636Z,17.38
2018-09-15T07:45:57.533Z,17.51
2018-09-15T07:46:57.444Z,17.46
2018-09-15T07:47:57.353Z,17.51
2018-09-15T07:48:57.248Z,17.51
2018-09-15T07:49:57.145Z,17.67
2018-09-15T07:50:57.042Z,17.44
2018-09-15T07:51:56.950Z,17.48
2018-09-15T07:52:56.847Z,17.46
2018-09-15T07:53:56.758Z,17.63
2018-09-15T07:54:56.654Z,17.59
2018-09-15T07:55:56.561Z,17.67
2018-09-15T07:56:56.458Z,17.74
2018-09-15T07:57:56.483Z,17.64
2018-09-15T07:58:56.266Z,17.72
2018-09-15T07:59:56.166Z,17.79
2018-09-15T08:00:56.083Z,17.90
2018-09-15T08:01:56.029Z,17.87
2018-09-15T08:02:55.877Z,17.90
2018-09-15T08:03:55.775Z,17.87
2018-09-15T08:04:55.684Z,17.90
2018-09-15T08:05:55.579Z,17.89
2018-09-15T08:06:55.477Z,17.95
2018-09-15T08:07:55.386Z,18.00
2018-09-15T08:08:55.282Z,18.04
2018-09-15T08:09:55.190Z,18.10
2018-09-15T08:10:55.123Z,18.13
2018-09-15T08:11:54.998Z,18.01
2018-09-15T08:12:54.894Z,18.04
2018-09-15T08:13:54.803Z,18.19
2018-09-15T08:14:54.699Z,18.31
2018-09-15T08:15:54.610Z,18.29
2018-09-15T08:16:54.506Z,18.20
2018-09-15T08:17:54.414Z,18.31
2018-09-15T08:18:54.310Z,18.15
2018-09-15T08:19:54.208Z,18.11
2018-09-15T08:20:54.194Z,18.28
2018-09-15T08:21:54.015Z,18.23
2018-09-15T08:22:53.923Z,18.41
2018-09-15T08:23:53.819Z,18.33
2018-09-15T08:24:53.730Z,18.47
2018-09-15T08:25:53.625Z,18.52
2018-09-15T08:26:53.535Z,18.58
2018-09-15T08:27:53.432Z,18.60
2018-09-15T08:28:53.340Z,18.44
2018-09-15T08:29:53.238Z,18.43
2018-09-15T08:30:53.146Z,18.41
2018-09-15T08:31:53.061Z,18.43
2018-09-15T08:32:52.941Z,18.35
2018-09-15T08:33:52.849Z,18.52
2018-09-15T08:34:52.746Z,18.58
2018-09-15T08:35:52.655Z,18.71
2018-09-15T08:36:52.552Z,18.60
2018-09-15T08:37:52.464Z,18.66
2018-09-15T08:38:52.358Z,18.77
2018-09-15T08:39:52.269Z,18.66
2018-09-15T08:40:52.162Z,18.62
2018-09-15T08:41:52.073Z,18.71
2018-09-15T08:42:51.980Z,18.62
2018-09-15T08:43:51.879Z,18.65
2018-09-15T08:44:51.784Z,18.37
2018-09-15T08:45:51.685Z,18.40
2018-09-15T08:46:51.581Z,18.44
2018-09-15T08:47:51.490Z,18.52
2018-09-15T08:48:51.387Z,18.63
2018-09-15T08:49:51.296Z,18.63
2018-09-15T08:50:51.193Z,18.52
2018-09-15T08:51:51.101Z,18.58
2018-09-15T08:52:50.999Z,18.70
2018-09-15T08:53:50.908Z,18.83
2018-09-15T08:54:50.806Z,19.00
2018-09-15T08:55:50.730Z,19.26
2018-09-15T08:56:50.609Z,19.41
2018-09-15T08:57:50.521Z,19.63
2018-09-15T08:58:50.432Z,19.77
2018-09-15T08:59:50.325Z,20.00
2018-09-15T09:00:50.225Z,20.22
2018-09-15T09:01:50.132Z,20.24
2018-09-15T15:44:12.160Z,21.33
2018-09-15T15:45:12.057Z,21.25
2018-09-15T15:46:11.967Z,21.33
2018-09-15T15:47:11.880Z,21.30
2018-09-15T15:48:11.771Z,21.24
2018-09-15T15:49:11.682Z,21.32
2018-09-15T15:50:11.594Z,21.32
2018-09-15T15:51:11.488Z,21.24
2018-09-15T15:52:11.397Z,21.12
2018-09-15T15:53:11.305Z,21.18
2018-09-15T15:54:11.215Z,21.17
2018-09-15T15:55:11.117Z,21.17
2018-09-15T15:56:11.021Z,21.12
2018-09-15T15:57:10.920Z,21.12
2018-09-15T15:58:10.842Z,21.00
2018-09-15T15:59:10.785Z,21.06
2018-09-15T16:00:10.634Z,21.11
2018-09-15T16:01:10.543Z,21.06
2018-09-15T16:02:10.452Z,20.95
2018-09-15T16:03:10.348Z,20.96
2018-09-15T16:04:10.256Z,20.96
2018-09-15T16:05:10.166Z,20.99
2018-09-15T16:06:10.062Z,20.97
2018-09-15T16:07:09.972Z,20.78
2018-09-15T16:08:09.881Z,20.84
2018-09-15T16:09:09.778Z,20.80
2018-09-15T16:10:09.687Z,20.80
2018-09-15T16:11:09.643Z,20.70
2018-09-15T16:12:09.492Z,20.66
2018-09-15T16:13:09.402Z,20.63
2018-09-15T16:14:09.311Z,20.60
2018-09-15T16:15:09.224Z,20.59
2018-09-15T16:16:09.118Z,20.58
2018-09-15T16:17:09.030Z,20.52
2018-09-15T16:18:08.928Z,20.43
2018-09-15T16:19:08.837Z,20.52
2018-09-15T16:20:08.730Z,20.39
2018-09-15T16:21:08.640Z,20.44
2018-09-15T16:22:08.552Z,20.43
2018-09-15T16:23:08.444Z,20.43
2018-09-15T16:24:08.352Z,20.47
2018-09-15T16:25:08.263Z,20.28
2018-09-15T16:26:08.159Z,20.47
2018-09-15T16:27:08.068Z,20.37
2018-09-15T16:28:07.972Z,20.34
2018-09-15T16:29:07.875Z,20.28
2018-09-15T16:30:07.783Z,20.26
2018-09-15T16:31:07.680Z,20.28
2018-09-15T16:32:07.590Z,20.25
2018-09-15T16:33:07.488Z,20.29
2018-09-15T16:34:07.396Z,20.29
2018-09-15T16:35:07.304Z,20.24
2018-09-15T16:36:07.202Z,20.26
2018-09-15T16:37:07.110Z,20.31
2018-09-15T16:38:07.021Z,20.29
2018-09-15T16:39:06.916Z,20.31
2018-09-15T16:40:06.824Z,20.16
2018-09-15T16:41:06.721Z,20.19
2018-09-15T16:42:06.632Z,20.18
2018-09-15T16:43:06.553Z,20.14
2018-09-15T16:44:06.437Z,20.06
2018-09-15T16:45:06.348Z,20.04
2018-09-15T16:46:06.243Z,20.04
2018-09-15T16:47:06.152Z,19.96
2018-09-15T16:48:06.051Z,19.89
2018-09-15T16:49:05.964Z,19.89
2018-09-15T16:50:05.870Z,19.89
2018-09-15T16:51:05.763Z,19.86
2018-09-15T16:52:05.673Z,19.81
2018-09-15T16:53:05.580Z,19.85
2018-09-15T16:54:05.479Z,19.64
2018-09-15T16:55:05.389Z,19.74
2018-09-15T16:56:05.285Z,19.71
2018-09-15T16:57:05.272Z,19.73
2018-09-15T16:58:05.093Z,19.64
2018-09-15T16:59:05.000Z,19.55
2018-09-15T17:00:04.908Z,19.51
2018-09-15T17:01:04.806Z,19.56
2018-09-15T17:02:04.718Z,19.48
2018-09-15T17:03:04.612Z,19.52
2018-09-15T17:04:04.522Z,19.41
2018-09-15T17:05:04.453Z,19.39
2018-09-15T17:06:04.327Z,19.41
2018-09-15T17:07:04.225Z,19.26
2018-09-15T17:08:04.136Z,19.33
2018-09-15T17:09:04.042Z,19.19
2018-09-15T17:10:03.998Z,19.15
2018-09-15T17:11:03.848Z,19.16
2018-09-15T17:12:03.747Z,19.16
2018-09-15T17:13:03.655Z,19.16
2018-09-15T17:14:03.552Z,19.15
2018-09-15T17:15:03.461Z,19.11
2018-09-15T17:16:03.356Z,19.15
2018-09-15T17:17:03.266Z,19.02
2018-09-15T17:18:03.166Z,19.12
2018-09-15T17:19:03.071Z,19.07
2018-09-15T17:20:02.970Z,19.08
2018-09-15T17:21:02.878Z,19.02
2018-09-15T17:22:02.787Z,18.99
2018-09-15T17:23:02.685Z,19.00
2018-09-15T17:24:02.594Z,18.96
2018-09-15T17:25:02.490Z,18.93
2018-09-15T17:26:02.400Z,18.84
2018-09-15T17:27:02.295Z,18.89
2018-09-15T17:28:02.207Z,18.89
2018-09-15T17:29:02.103Z,18.89
2018-09-15T17:30:02.011Z,18.86
2018-09-15T17:31:01.994Z,18.77
2018-09-15T17:32:01.832Z,18.71
2018-09-15T17:33:01.713Z,18.73
2018-09-15T17:34:01.625Z,18.62
2018-09-15T17:35:01.520Z,18.65
2018-09-15T17:36:01.429Z,18.66
2018-09-15T17:37:01.390Z,18.63
2018-09-15T17:38:01.234Z,18.53
2018-09-15T17:39:01.135Z,18.60
2018-09-15T17:40:01.040Z,18.50
2018-09-15T17:41:00.949Z,18.44
2018-09-15T17:42:00.846Z,18.40
2018-09-15T17:43:00.744Z,18.41
2018-09-15T17:44:00.653Z,18.33
2018-09-15T17:45:00.561Z,18.25
2018-09-15T17:46:00.458Z,18.25
2018-09-15T17:47:00.356Z,18.19
2018-09-15T17:48:00.265Z,18.15
2018-09-15T17:49:00.173Z,18.18
2018-09-15T17:50:00.076Z,18.01
2018-09-15T17:50:59.967Z,18.03
2018-09-15T17:51:59.877Z,18.04
2018-09-15T17:52:59.788Z,17.95
2018-09-15T17:53:59.682Z,17.97
2018-09-15T17:54:59.644Z,18.00
2018-09-15T17:55:59.488Z,18.00
2018-09-15T17:56:59.384Z,18.00
2018-09-15T17:57:59.294Z,17.92
2018-09-15T17:58:59.189Z,17.95
2018-09-15T17:59:59.100Z,17.95
2018-09-15T18:00:58.997Z,17.90
2018-09-15T18:01:58.908Z,17.89
2018-09-15T18:02:58.801Z,17.89
2018-09-15T18:03:58.717Z,17.94
2018-09-15T18:04:58.612Z,17.94
2018-09-15T18:05:58.516Z,17.89
2018-09-15T18:06:58.413Z,17.86
2018-09-15T18:07:58.324Z,17.87
2018-09-15T18:08:58.220Z,17.90
2018-09-15T18:09:58.149Z,17.87
2018-09-15T18:10:58.025Z,17.87
2018-09-15T18:11:57.935Z,17.94
2018-09-15T18:12:57.832Z,17.90
2018-09-15T18:13:57.728Z,17.97
2018-09-15T18:14:57.654Z,17.86
2018-09-15T18:15:57.534Z,17.95
2018-09-15T18:16:57.443Z,17.90
2018-09-15T18:17:57.340Z,17.94
2018-09-15T18:18:57.248Z,17.87
2018-09-15T18:19:57.151Z,17.95
2018-09-15T18:20:57.055Z,17.97
2018-09-15T18:21:57.011Z,17.94
2018-09-15T18:22:56.874Z,17.92
2018-09-15T18:23:56.758Z,17.90
2018-09-15T18:24:56.666Z,17.94
2018-09-15T18:25:56.563Z,18.00
2018-09-15T18:26:56.472Z,18.05
2018-09-15T18:27:56.401Z,18.05
2018-09-15T18:28:56.270Z,18.07
2018-09-15T18:29:56.175Z,18.13
2018-09-15T18:30:56.071Z,18.05
2018-09-15T18:31:55.981Z,18.13
2018-09-15T18:32:55.876Z,18.22
2018-09-15T18:33:55.869Z,18.15
2018-09-15T18:34:55.683Z,18.11
2018-09-15T18:35:55.657Z,18.11
2018-09-15T18:36:55.680Z,18.13
2018-09-15T18:37:55.402Z,18.10
2018-09-15T18:38:55.296Z,18.04
2018-09-15T18:39:55.203Z,18.10
2018-09-15T18:40:55.100Z,18.04
2018-09-15T18:41:54.999Z,17.97
2018-09-15T18:42:54.930Z,17.95
2018-09-15T18:43:54.814Z,17.97
2018-09-15T18:44:54.711Z,17.95
2018-09-15T18:45:54.609Z,17.92
2018-09-15T18:46:54.519Z,17.94
2018-09-15T18:47:54.416Z,17.89
2018-09-15T18:48:54.324Z,17.95
2018-09-15T18:49:54.220Z,17.87
2018-09-15T18:50:54.132Z,17.90
2018-09-15T18:51:54.029Z,17.90
2018-09-15T18:52:53.936Z,17.83
2018-09-15T18:53:53.832Z,17.82
2018-09-15T18:54:53.730Z,17.85
2018-09-15T18:55:53.638Z,17.85
2018-09-15T18:56:53.539Z,17.79
2018-09-15T18:57:53.458Z,17.87
2018-09-15T18:58:53.340Z,17.78
2018-09-15T18:59:53.255Z,17.76
2018-09-15T19:00:53.148Z,17.83
2018-09-15T19:01:53.056Z,17.80
2018-09-15T19:02:52.953Z,17.71
2018-09-15T19:03:52.861Z,17.76
2018-09-15T19:04:52.775Z,17.78
2018-09-15T19:05:52.714Z,17.78
2018-09-15T19:06:52.565Z,17.65
2018-09-15T19:07:52.461Z,17.67
2018-09-15T19:08:52.371Z,17.67
2018-09-15T19:09:52.268Z,17.71
2018-09-15T19:10:52.177Z,17.71
2018-09-15T19:11:52.072Z,17.68
2018-09-15T19:12:51.983Z,17.64
2018-09-15T19:13:51.879Z,17.68
2018-09-15T19:14:51.835Z,17.74
2018-09-15T19:15:51.684Z,17.63
2018-09-15T19:16:51.581Z,17.52
2018-09-15T19:17:51.494Z,17.46
2018-09-15T19:18:51.388Z,17.51
2018-09-15T19:19:51.296Z,17.67
2018-09-15T19:20:51.193Z,17.51
2018-09-15T19:21:51.091Z,17.51
2018-09-15T19:22:50.999Z,17.45
2018-09-15T19:23:50.896Z,17.46
2018-09-15T19:24:50.804Z,17.45
2018-09-15T19:25:50.701Z,17.49
2018-09-15T19:26:50.649Z,17.48
2018-09-15T19:27:50.508Z,17.48
2018-09-15T19:28:50.416Z,17.52
2018-09-15T19:29:50.318Z,17.48
2018-09-15T19:30:50.211Z,17.46
2018-09-15T19:31:50.120Z,17.54
2018-09-15T19:32:50.087Z,17.42